Time;durP1;ratioP1;P1;durP2;ratioP2;P2;SDS_P1;SDS_P2;PMS_P1;PMS_P2;Temp;Humidity;BMP_temperature;BMP_pressure;BME280_temperature;BME280_humidity;BME280_pressure;Samples;Min_cycle;Max_cycle;Signal;HPM_P1;HPM_P2
2022/11/30 00:00:39;;;;;;;74.30;38.97;;;;;;;1.93;95.62;96262.88;2041759;29;20050;-58
2022/11/30 00:01:40;;;;;;;89.45;40.10;;;;;;;1.91;96.12;96256.91;2041458;29;20062;-55
2022/11/30 00:02:41;;;;;;;79.53;39.42;;;;;;;1.89;96.27;96258.63;2040850;29;20070;-54
2022/11/30 00:03:43;;;;;;;82.88;40.00;;;;;;;1.87;96.41;96259.50;2041640;29;20063;-54
2022/11/30 00:04:44;;;;;;;80.10;38.20;;;;;;;1.91;96.51;96261.19;2041337;29;20060;-54
2022/11/30 00:05:45;;;;;;;83.70;39.05;;;;;;;1.96;96.52;96265.41;2040956;29;20064;-54
2022/11/30 00:06:46;;;;;;;70.00;37.28;;;;;;;1.97;96.08;96261.13;2040840;29;20058;-55
2022/11/30 00:07:48;;;;;;;80.50;37.97;;;;;;;1.89;96.09;96242.41;2041716;29;20055;-55
2022/11/30 00:08:55;;;;;;;76.65;37.95;;;;;;;1.75;95.79;96240.84;2041299;29;20052;-54
2022/11/30 00:09:57;;;;;;;73.28;36.28;;;;;;;1.91;95.68;96251.78;2041435;29;20051;-54
2022/11/30 00:10:58;;;;;;;76.63;38.65;;;;;;;1.92;96.13;96263.72;2040951;29;20048;-54
2022/11/30 00:11:59;;;;;;;77.35;37.92;;;;;;;1.96;96.30;96270.53;2041746;29;20395;-58
2022/11/30 00:13:00;;;;;;;79.63;37.92;;;;;;;1.99;95.86;96262.81;2041658;29;20051;-58
2022/11/30 00:14:01;;;;;;;79.68;37.40;;;;;;;1.95;96.02;96263.72;2041972;29;20053;-58
2022/11/30 00:15:03;;;;;;;80.40;38.00;;;;;;;1.91;96.05;96262.03;2042961;29;20059;-58
2022/11/30 00:16:04;;;;;;;77.32;37.67;;;;;;;1.94;96.08;96261.16;2042848;29;20044;-58
2022/11/30 00:17:05;;;;;;;77.00;38.47;;;;;;;1.94;96.18;96256.03;2043036;29;20052;-54
2022/11/30 00:18:06;;;;;;;73.07;36.83;;;;;;;1.94;96.00;96263.72;2042924;29;20047;-55
2022/11/30 00:19:07;;;;;;;74.10;37.00;;;;;;;1.97;95.99;96263.69;2042848;29;20467;-55
2022/11/30 00:20:09;;;;;;;69.30;35.95;;;;;;;1.91;95.74;96262.03;2041739;29;20047;-55
2022/11/30 00:21:11;;;;;;;69.75;35.63;;;;;;;1.82;95.76;96259.56;2041209;29;20059;-54
2022/11/30 00:22:12;;;;;;;73.30;35.53;;;;;;;1.82;96.08;96269.81;2042558;29;20055;-55
2022/11/30 00:23:13;;;;;;;70.70;36.08;;;;;;;1.83;95.56;96258.69;2042746;29;20054;-55
2022/11/30 00:24:14;;;;;;;69.88;34.55;;;;;;;1.86;96.14;96262.94;2042869;29;20058;-55
2022/11/30 00:25:15;;;;;;;80.97;38.25;;;;;;;1.91;95.94;96262.03;2042840;29;20059;-55
2022/11/30 00:26:17;;;;;;;79.50;38.10;;;;;;;1.75;95.98;96269.00;2042513;29;20052;-54
2022/11/30 00:27:18;;;;;;;71.95;35.17;;;;;;;1.87;96.03;96278.31;2042816;29;20048;-54
2022/11/30 00:28:19;;;;;;;76.38;37.08;;;;;;;1.84;95.67;96268.06;2041560;29;20459;-55
2022/11/30 00:29:20;;;;;;;72.88;35.53;;;;;;;1.82;95.78;96280.06;2041957;29;20047;-54
2022/11/30 00:30:22;;;;;;;76.18;35.75;;;;;;;1.84;95.57;96274.91;2042426;29;20055;-55
2022/11/30 00:31:23;;;;;;;70.45;35.50;;;;;;;1.86;95.92;96271.47;2042868;29;20388;-63
2022/11/30 00:32:25;;;;;;;75.15;35.90;;;;;;;1.87;95.90;96274.88;2042530;29;20372;-64
2022/11/30 00:33:27;;;;;;;75.20;36.70;;;;;;;1.82;96.19;96261.25;2042431;29;20074;-64
2022/11/30 00:34:28;;;;;;;77.40;36.97;;;;;;;1.91;95.79;96272.28;2041883;29;20056;-63
2022/11/30 00:35:30;;;;;;;67.15;34.90;;;;;;;1.81;96.07;96282.63;2042804;29;20060;-63
2022/11/30 00:36:31;;;;;;;68.97;33.42;;;;;;;1.80;95.86;96275.81;2042122;29;20055;-63
2022/11/30 00:37:35;;;;;;;66.05;33.85;;;;;;;1.73;95.67;96277.56;2042766;29;20348;-63
2022/11/30 00:38:36;;;;;;;72.57;34.97;;;;;;;1.79;96.09;96287.72;2042362;29;20055;-63
2022/11/30 00:39:37;;;;;;;67.45;32.97;;;;;;;1.75;95.90;96281.81;2043016;29;20056;-63
2022/11/30 00:40:39;;;;;;;68.85;35.60;;;;;;;1.74;95.56;96280.13;2042926;29;20373;-63
2022/11/30 00:41:40;;;;;;;67.32;33.25;;;;;;;1.76;95.59;96283.53;2042989;29;20040;-59
2022/11/30 00:42:41;;;;;;;66.25;33.03;;;;;;;1.77;95.90;96282.66;2042393;29;20062;-59
2022/11/30 00:43:42;;;;;;;64.82;33.00;;;;;;;1.73;95.38;96283.53;2042049;29;20451;-60
2022/11/30 00:44:43;;;;;;;63.17;32.03;;;;;;;1.61;95.72;96270.84;2042446;29;20059;-59
2022/11/30 00:45:44;;;;;;;66.60;33.22;;;;;;;1.60;95.84;96258.03;2042521;29;20055;-60
2022/11/30 00:46:45;;;;;;;71.10;33.83;;;;;;;1.77;95.87;96284.38;2042181;29;20063;-61
2022/11/30 00:47:47;;;;;;;64.55;31.92;;;;;;;1.69;95.90;96288.69;2042421;29;20066;-61
2022/11/30 00:48:48;;;;;;;65.43;31.90;;;;;;;1.70;95.78;96282.69;2042405;29;20060;-61
2022/11/30 00:49:49;;;;;;;67.50;34.88;;;;;;;1.72;95.93;96293.78;2042913;29;20044;-61
2022/11/30 00:50:50;;;;;;;68.95;33.55;;;;;;;1.76;95.84;96290.31;2042047;29;20059;-61
2022/11/30 00:51:51;;;;;;;76.90;34.72;;;;;;;1.67;95.67;96273.34;2042094;29;20062;-61
2022/11/30 00:52:52;;;;;;;72.00;33.72;;;;;;;1.68;95.87;96290.38;2042078;29;20052;-61
2022/11/30 00:53:53;;;;;;;69.88;34.38;;;;;;;1.64;95.82;96281.03;2042557;29;20044;-61
2022/11/30 00:54:55;;;;;;;74.30;33.95;;;;;;;1.72;95.81;96294.63;2042804;29;20078;-61
2022/11/30 00:55:56;;;;;;;74.22;34.90;;;;;;;1.76;96.00;96303.13;2042379;29;20054;-61
2022/11/30 00:56:57;;;;;;;77.63;36.45;;;;;;;1.76;96.04;96296.31;2042081;29;20127;-54
2022/11/30 00:57:59;;;;;;;80.93;37.55;;;;;;;1.75;95.87;96299.72;2042189;29;20498;-55
2022/11/30 00:59:00;;;;;;;77.55;36.20;;;;;;;1.79;95.95;96287.72;2042672;29;20052;-55
2022/11/30 01:00:01;;;;;;;71.70;35.22;;;;;;;1.81;95.86;96297.97;2042607;29;20052;-55
2022/11/30 01:01:02;;;;;;;71.10;34.22;;;;;;;1.69;96.15;96273.34;2042063;29;20393;-55
2022/11/30 01:02:03;;;;;;;76.82;35.72;;;;;;;1.73;95.83;96295.47;2042881;29;20486;-58
2022/11/30 01:03:04;;;;;;;70.00;34.13;;;;;;;1.57;95.61;96275.97;2042747;29;20051;-57
2022/11/30 01:04:05;;;;;;;80.78;37.13;;;;;;;1.67;95.75;96295.53;2042026;29;20047;-57
2022/11/30 01:05:07;;;;;;;87.43;38.53;;;;;;;1.69;95.61;96299.78;2042318;29;20060;-57
2022/11/30 01:06:08;;;;;;;82.60;37.83;;;;;;;1.67;95.75;96292.97;2042605;29;20055;-57
2022/11/30 01:07:09;;;;;;;80.55;37.25;;;;;;;1.63;95.90;96304.09;2042307;29;20047;-59
2022/11/30 01:08:10;;;;;;;85.88;38.55;;;;;;;1.59;96.14;96300.72;2042428;29;20052;-60
2022/11/30 01:09:11;;;;;;;81.47;36.58;;;;;;;1.62;96.33;96303.25;2042741;29;20048;-59
2022/11/30 01:10:14;;;;;;;78.00;35.50;;;;;;;1.60;96.12;96301.53;2042481;29;20387;-59
2022/11/30 01:11:17;;;;;;;86.40;39.22;;;;;;;1.65;96.28;96300.66;2042497;29;20066;-60
2022/11/30 01:12:18;;;;;;;83.10;36.60;;;;;;;1.65;96.07;96304.94;2042246;29;20087;-60
2022/11/30 01:13:19;;;;;;;78.82;35.63;;;;;;;1.70;96.00;96298.91;2042585;29;20051;-59
2022/11/30 01:14:20;;;;;;;75.05;35.17;;;;;;;1.67;95.90;96298.09;2042624;29;20055;-60
2022/11/30 01:15:21;;;;;;;82.53;36.83;;;;;;;1.67;95.92;96308.34;2042571;29;20051;-59
2022/11/30 01:16:24;;;;;;;74.35;35.70;;;;;;;1.61;95.41;96303.28;2042285;29;20426;-62
2022/11/30 01:17:26;;;;;;;78.47;35.33;;;;;;;1.74;95.68;96304.88;2042994;29;20058;-62
2022/11/30 01:18:27;;;;;;;81.68;36.55;;;;;;;1.72;95.59;96301.47;2043057;29;20063;-61
2022/11/30 01:19:28;;;;;;;81.05;37.30;;;;;;;1.70;95.68;96303.19;2042702;29;20070;-62
2022/11/30 01:20:29;;;;;;;76.28;36.25;;;;;;;1.56;95.81;96276.84;2042202;29;20066;-61
2022/11/30 01:21:30;;;;;;;78.22;34.65;;;;;;;1.59;95.94;96271.69;2042247;29;20066;-55
2022/11/30 01:22:31;;;;;;;80.85;35.90;;;;;;;1.79;96.38;96305.66;2042478;29;20048;-54
2022/11/30 01:23:34;;;;;;;82.85;38.38;;;;;;;1.59;95.75;96285.34;2042501;29;20055;-55
2022/11/30 01:24:35;;;;;;;81.85;38.00;;;;;;;1.71;95.70;96310.00;2042146;29;20059;-54
2022/11/30 01:25:36;;;;;;;83.35;38.83;;;;;;;1.58;95.73;96285.34;2042201;29;20055;-55
2022/11/30 01:26:37;;;;;;;86.93;39.17;;;;;;;1.67;95.79;96309.19;2042481;29;20039;-55
2022/11/30 01:27:38;;;;;;;78.18;36.97;;;;;;;1.63;95.76;96310.06;2041884;29;20059;-54
2022/11/30 01:28:39;;;;;;;89.75;39.13;;;;;;;1.67;96.18;96313.44;2042420;29;20060;-55
2022/11/30 01:29:40;;;;;;;87.78;37.92;;;;;;;1.68;96.51;96307.47;2042303;29;20160;-54
2022/11/30 01:30:42;;;;;;;87.47;39.65;;;;;;;1.66;95.96;96306.66;2041665;29;20518;-55
2022/11/30 01:31:43;;;;;;;88.88;39.25;;;;;;;1.71;96.00;96305.75;2042326;29;20063;-58
2022/11/30 01:32:44;;;;;;;93.22;40.75;;;;;;;1.64;95.65;96300.69;2042539;29;20047;-57
2022/11/30 01:33:52;;;;;;;89.55;37.50;;;;;;;1.68;95.76;96300.63;2042071;29;20491;-57
2022/11/30 01:34:53;;;;;;;86.75;37.40;;;;;;;1.60;95.74;96281.06;2041720;29;20060;-57
2022/11/30 01:36:11;;;;;;;86.03;37.97;;;;;;;1.57;95.68;96286.22;2042093;29;20055;-57
2022/11/30 01:37:12;;;;;;;89.03;37.42;;;;;;;1.71;95.72;96310.88;2042097;29;20066;-57
2022/11/30 01:38:13;;;;;;;91.70;39.53;;;;;;;1.70;95.80;96316.00;2042101;29;20086;-58
2022/11/30 01:39:14;;;;;;;91.57;39.22;;;;;;;1.61;95.89;96318.63;2041941;29;20056;-57
2022/11/30 01:40:15;;;;;;;96.13;41.00;;;;;;;1.53;95.85;96319.53;2042437;29;20055;-57
2022/11/30 01:41:26;;;;;;;98.93;41.38;;;;;;;1.55;96.13;96316.94;2041682;29;20066;-57
2022/11/30 01:42:27;;;;;;;101.68;39.80;;;;;;;1.46;95.98;96294.81;2042367;29;20043;-57
2022/11/30 01:43:41;;;;;;;102.13;40.42;;;;;;;1.61;95.69;96322.03;2042210;29;20056;-57
2022/11/30 01:44:54;;;;;;;97.75;38.00;;;;;;;1.56;96.11;96326.34;2042230;29;20052;-57
2022/11/30 01:45:55;;;;;;;97.18;41.30;;;;;;;1.48;96.14;96321.25;2042014;29;20039;-57
2022/11/30 01:47:01;;;;;;;98.03;40.13;;;;;;;1.39;96.25;96300.84;2041455;29;20058;-55
2022/11/30 01:48:02;;;;;;;97.93;41.05;;;;;;;1.56;96.20;96320.38;2041037;29;20040;-55
2022/11/30 01:49:12;;;;;;;103.47;41.72;;;;;;;1.50;96.66;96322.09;2041293;29;20047;-55
2022/11/30 01:50:17;;;;;;;98.53;40.72;;;;;;;1.43;96.43;96297.41;2041180;29;20058;-53
2022/11/30 01:51:18;;;;;;;106.47;39.80;;;;;;;1.58;96.19;96322.06;2042482;29;20380;-55
2022/11/30 01:52:28;;;;;;;94.25;42.03;;;;;;;1.62;96.39;96325.44;2041545;29;20054;-54
2022/11/30 01:53:29;;;;;;;100.30;41.00;;;;;;;1.57;96.25;96319.50;2035006;29;20087;-54
2022/11/30 01:54:49;;;;;;;96.55;39.67;;;;;;;1.57;96.55;96322.06;2041267;29;20515;-54
2022/11/30 01:55:50;;;;;;;95.70;40.40;;;;;;;1.54;96.32;96316.09;2041171;29;20052;-55
2022/11/30 01:56:56;;;;;;;97.78;40.70;;;;;;;1.54;96.23;96323.75;2026353;29;20382;-60
2022/11/30 01:58:14;;;;;;;103.88;41.30;;;;;;;1.52;96.07;96330.63;2026874;29;20053;-59
2022/11/30 01:59:15;;;;;;;101.00;41.60;;;;;;;1.57;95.86;96330.56;2041125;29;20059;-60
2022/11/30 02:00:17;;;;;;;98.80;41.22;;;;;;;1.43;95.94;96306.78;2041444;29;20044;-59
2022/11/30 02:01:20;;;;;;;99.25;40.63;;;;;;;1.61;95.79;96334.00;2040885;29;20067;-60
2022/11/30 02:02:29;;;;;;;101.60;39.92;;;;;;;1.49;95.74;96312.72;2041848;29;20070;-60
2022/11/30 02:03:54;;;;;;;98.88;40.78;;;;;;;1.62;95.80;96333.97;2044150;29;20040;-60
2022/11/30 02:04:55;;;;;;;92.55;40.92;;;;;;;1.56;95.62;96335.72;2029255;29;20052;-60
2022/11/30 02:05:56;;;;;;;93.68;40.10;;;;;;;1.51;95.71;96328.91;2033810;29;20052;-60
2022/11/30 02:06:58;;;;;;;97.70;39.97;;;;;;;1.60;95.78;96328.00;2032999;29;20051;-60
2022/11/30 02:07:59;;;;;;;101.28;43.03;;;;;;;1.59;95.75;96328.03;2033283;29;20056;-60
2022/11/30 02:09:00;;;;;;;92.53;41.38;;;;;;;1.35;95.72;96306.00;2042116;29;20052;-60
2022/11/30 02:10:01;;;;;;;99.32;41.53;;;;;;;1.45;95.88;96323.84;2041086;29;20052;-60
2022/11/30 02:11:05;;;;;;;100.25;43.03;;;;;;;1.49;95.90;96328.06;2041005;29;20056;-60
2022/11/30 02:12:07;;;;;;;93.47;38.35;;;;;;;1.59;95.84;96331.44;2041291;29;20118;-59
2022/11/30 02:13:20;;;;;;;101.93;43.97;;;;;;;1.55;95.62;96334.84;2033104;29;20067;-60
2022/11/30 02:14:32;;;;;;;107.63;41.58;;;;;;;1.49;96.00;96333.19;2035002;29;20519;-60
2022/11/30 02:15:43;;;;;;;94.53;39.97;;;;;;;1.48;95.80;96323.81;2041388;29;20047;-60
2022/11/30 02:17:11;;;;;;;102.47;40.22;;;;;;;1.57;96.09;96330.56;2040978;29;20107;-60
2022/11/30 02:18:14;;;;;;;93.60;39.92;;;;;;;1.51;96.48;96335.75;2041112;29;20048;-60
2022/11/30 02:19:54;;;;;;;98.35;42.00;;;;;;;1.50;96.14;96334.06;2041263;29;20044;-60
2022/11/30 02:21:12;;;;;;;102.68;40.42;;;;;;;1.46;95.92;96334.91;2040658;29;20052;-60
2022/11/30 02:22:22;;;;;;;103.88;43.88;;;;;;;1.28;95.88;96320.50;2040539;29;20059;-61
2022/11/30 02:23:53;;;;;;;100.97;42.25;;;;;;;1.41;95.98;96324.72;2036029;29;20067;-60
2022/11/30 02:25:22;;;;;;;91.97;39.70;;;;;;;1.25;96.07;96308.59;1998903;29;20050;-60
2022/11/30 02:26:27;;;;;;;103.63;41.03;;;;;;;1.41;96.21;96331.53;2041265;29;20052;-59
2022/11/30 02:28:03;;;;;;;100.38;42.95;;;;;;;1.43;96.07;96330.66;2041136;29;20534;-59
2022/11/30 02:29:07;;;;;;;104.93;43.22;;;;;;;1.46;96.17;96335.75;2037644;29;20048;-59
2022/11/30 02:30:15;;;;;;;102.22;42.45;;;;;;;1.53;96.21;96331.47;2040869;29;20047;-59
2022/11/30 02:31:20;;;;;;;98.80;42.72;;;;;;;1.52;95.88;96329.75;2041385;29;20098;-59
2022/11/30 02:32:23;;;;;;;98.00;43.85;;;;;;;1.46;95.92;96334.91;2026840;29;20048;-59
2022/11/30 02:33:25;;;;;;;110.28;45.80;;;;;;;1.26;95.96;96310.31;2033310;29;20063;-58
2022/11/30 02:34:27;;;;;;;112.07;44.83;;;;;;;1.44;95.94;96332.34;2040599;29;20497;-59
2022/11/30 02:35:29;;;;;;;103.63;44.15;;;;;;;1.46;95.73;96335.75;2025446;29;20071;-59
2022/11/30 02:36:30;;;;;;;108.72;45.38;;;;;;;1.41;95.91;96337.50;2017721;29;20064;-62
2022/11/30 02:37:32;;;;;;;107.70;45.22;;;;;;;1.48;96.17;96344.28;2032950;29;20063;-63
2022/11/30 02:38:33;;;;;;;112.05;46.15;;;;;;;1.30;96.00;96304.28;2041394;29;20495;-63
2022/11/30 02:39:34;;;;;;;104.30;45.67;;;;;;;1.26;95.79;96307.75;2041295;29;20052;-63
2022/11/30 02:40:35;;;;;;;106.63;46.85;;;;;;;1.37;95.92;96327.31;2041312;29;20063;-63
2022/11/30 02:41:37;;;;;;;101.72;43.97;;;;;;;1.39;95.89;96328.13;2042079;29;20043;-63
2022/11/30 02:42:38;;;;;;;101.53;44.00;;;;;;;1.38;95.99;96331.56;2041758;29;20368;-63
2022/11/30 02:43:39;;;;;;;106.22;45.08;;;;;;;1.40;95.91;96327.28;2041826;29;20063;-63
2022/11/30 02:44:46;;;;;;;107.82;46.17;;;;;;;1.27;96.17;96309.44;2040292;29;20055;-63
2022/11/30 02:45:53;;;;;;;105.00;44.03;;;;;;;1.43;96.21;96329.81;2041514;29;20059;-64
2022/11/30 02:47:12;;;;;;;101.88;45.00;;;;;;;1.38;95.93;96327.28;2042149;29;20364;-63
2022/11/30 02:48:13;;;;;;;100.05;44.50;;;;;;;1.44;96.18;96331.50;2041670;29;20050;-63
2022/11/30 02:49:29;;;;;;;106.47;45.80;;;;;;;1.43;96.15;96327.28;2049247;29;20066;-63
2022/11/30 02:50:34;;;;;;;104.72;43.75;;;;;;;1.24;96.04;96293.25;2046778;29;20556;-63
2022/11/30 02:51:35;;;;;;;99.10;44.55;;;;;;;1.46;96.03;96315.28;2048796;29;20102;-53
2022/11/30 02:52:36;;;;;;;101.95;43.03;;;;;;;1.47;95.97;96324.69;2048429;29;20062;-55
2022/11/30 02:53:37;;;;;;;104.55;44.65;;;;;;;1.52;95.92;96325.50;2041791;29;20040;-54
2022/11/30 02:54:38;;;;;;;101.45;43.13;;;;;;;1.53;95.90;96321.22;2040924;29;20056;-54
2022/11/30 02:55:39;;;;;;;109.35;46.22;;;;;;;1.52;95.63;96325.50;2041060;29;20047;-55
2022/11/30 02:56:40;;;;;;;104.70;46.25;;;;;;;1.48;95.74;96328.09;2041783;29;20066;-58
2022/11/30 02:57:42;;;;;;;101.95;45.20;;;;;;;1.39;95.76;96320.44;2042008;29;20047;-58
2022/11/30 02:58:43;;;;;;;104.60;44.78;;;;;;;1.53;96.09;96326.34;2041458;29;20062;-58
2022/11/30 02:59:44;;;;;;;101.13;44.58;;;;;;;1.54;96.03;96334.00;2041430;29;20062;-58
2022/11/30 03:00:45;;;;;;;99.82;44.75;;;;;;;1.60;95.88;96333.13;2041439;29;20098;-58
2022/11/30 03:01:46;;;;;;;104.93;45.90;;;;;;;1.44;95.86;96295.69;2041355;29;20063;-58
2022/11/30 03:02:47;;;;;;;105.97;45.08;;;;;;;1.57;95.74;96329.72;2041884;29;20062;-58
2022/11/30 03:03:48;;;;;;;108.47;47.05;;;;;;;1.55;95.92;96314.38;2041618;29;20122;-58
2022/11/30 03:04:49;;;;;;;107.53;46.83;;;;;;;1.56;95.84;96330.59;2041852;29;20039;-58
2022/11/30 03:05:50;;;;;;;106.78;46.60;;;;;;;1.58;95.67;96328.88;2041798;29;20056;-58
2022/11/30 03:06:51;;;;;;;103.70;44.70;;;;;;;1.58;95.76;96326.31;2041411;29;20117;-58
2022/11/30 03:07:53;;;;;;;108.07;45.67;;;;;;;1.56;95.85;96330.59;2041848;29;20040;-58
2022/11/30 03:08:54;;;;;;;98.43;45.45;;;;;;;1.54;95.59;96330.59;2041386;29;20074;-58
2022/11/30 03:09:55;;;;;;;104.55;45.15;;;;;;;1.57;95.82;96327.16;2041253;29;20146;-58
2022/11/30 03:10:56;;;;;;;101.35;43.35;;;;;;;1.62;95.65;96328.84;2041711;29;20058;-58
2022/11/30 03:11:57;;;;;;;100.93;44.03;;;;;;;1.65;95.74;96333.09;2040948;29;20039;-55
2022/11/30 03:12:59;;;;;;;93.40;42.08;;;;;;;1.61;95.22;96328.88;2041016;29;20043;-55
2022/11/30 03:14:00;;;;;;;100.70;43.20;;;;;;;1.61;95.64;96332.28;2041490;29;20058;-54
2022/11/30 03:15:01;;;;;;;107.40;45.08;;;;;;;1.58;95.21;96323.75;2041092;29;20051;-55
2022/11/30 03:16:09;;;;;;;99.43;43.65;;;;;;;1.51;95.39;96330.63;2041810;29;20502;-55
2022/11/30 03:17:10;;;;;;;93.20;41.75;;;;;;;1.48;95.50;96330.66;2041884;29;20051;-63
2022/11/30 03:18:12;;;;;;;99.20;43.70;;;;;;;1.45;95.49;96328.97;2041563;29;20066;-63
2022/11/30 03:19:13;;;;;;;103.95;45.20;;;;;;;1.54;95.76;96333.16;2041040;29;20086;-62
2022/11/30 03:20:15;;;;;;;103.03;45.40;;;;;;;1.57;95.22;96334.84;2041551;29;20067;-63
2022/11/30 03:21:16;;;;;;;97.20;42.38;;;;;;;1.56;95.16;96328.88;2041505;29;20067;-63
2022/11/30 03:22:17;;;;;;;103.45;43.63;;;;;;;1.62;95.20;96330.56;2041284;29;20058;-63
2022/11/30 03:23:18;;;;;;;106.07;45.78;;;;;;;1.51;94.93;96313.56;2041408;29;20064;-63
2022/11/30 03:24:19;;;;;;;98.80;42.70;;;;;;;1.59;95.08;96321.19;2041296;29;20056;-64
2022/11/30 03:25:20;;;;;;;104.32;45.03;;;;;;;1.41;95.02;96296.56;2041233;29;20047;-64
2022/11/30 03:26:21;;;;;;;104.60;44.95;;;;;;;1.35;95.41;96301.72;2042065;29;20055;-61
2022/11/30 03:27:22;;;;;;;101.32;45.67;;;;;;;1.56;95.43;96325.50;2041722;29;20048;-61
2022/11/30 03:28:24;;;;;;;99.85;44.10;;;;;;;1.45;95.42;96300.81;2040875;29;20488;-61
2022/11/30 03:29:25;;;;;;;104.95;44.60;;;;;;;1.58;94.94;96328.88;2040899;29;20059;-61
2022/11/30 03:30:26;;;;;;;104.78;44.75;;;;;;;1.53;95.07;96329.75;2041398;29;20056;-61
2022/11/30 03:31:28;;;;;;;92.97;42.13;;;;;;;1.37;95.40;96314.53;2041355;29;20055;-61
2022/11/30 03:32:30;;;;;;;109.68;45.78;;;;;;;1.49;95.24;96333.19;2041658;29;20475;-61
2022/11/30 03:33:31;;;;;;;97.45;43.63;;;;;;;1.37;94.78;96304.28;2041224;29;20059;-61
2022/11/30 03:34:32;;;;;;;105.43;44.45;;;;;;;1.58;95.06;96329.75;2041602;29;20075;-61
2022/11/30 03:35:33;;;;;;;100.43;43.10;;;;;;;1.65;94.88;96333.09;2041401;29;20059;-60
2022/11/30 03:36:34;;;;;;;97.70;43.50;;;;;;;1.70;94.64;96339.03;2041058;29;20056;-57
2022/11/30 03:37:35;;;;;;;97.20;43.90;;;;;;;1.65;94.89;96341.63;2041389;29;20062;-57
2022/11/30 03:38:37;;;;;;;95.90;43.33;;;;;;;1.65;94.64;96343.34;2041000;29;20056;-57
2022/11/30 03:39:38;;;;;;;93.38;41.72;;;;;;;1.66;94.58;96348.44;2041219;29;20411;-57
2022/11/30 03:40:39;;;;;;;91.97;40.38;;;;;;;1.71;94.49;96350.97;2041209;29;20062;-57
2022/11/30 03:41:40;;;;;;;98.55;43.63;;;;;;;1.69;94.53;96348.44;2041441;29;20059;-55
2022/11/30 03:42:41;;;;;;;96.35;44.13;;;;;;;1.63;94.34;96348.47;2041007;29;20466;-55
2022/11/30 03:43:43;;;;;;;95.07;42.30;;;;;;;1.68;94.51;96350.97;2041057;29;20067;-55
2022/11/30 03:44:44;;;;;;;88.82;41.10;;;;;;;1.74;94.15;96351.81;2041730;29;20399;-55
2022/11/30 03:45:45;;;;;;;102.75;44.17;;;;;;;1.68;94.44;96348.44;2041495;29;20167;-54
2022/11/30 03:46:46;;;;;;;101.18;43.70;;;;;;;1.68;94.39;96341.59;2041683;29;20055;-55
2022/11/30 03:47:47;;;;;;;102.65;43.63;;;;;;;1.73;94.47;96346.69;2041843;29;20395;-55
2022/11/30 03:48:48;;;;;;;94.50;42.60;;;;;;;1.67;94.34;96345.03;2042909;29;20063;-56
2022/11/30 03:49:50;;;;;;;94.95;42.38;;;;;;;1.72;94.22;96343.28;2042800;29;20070;-55
2022/11/30 03:50:51;;;;;;;102.32;43.88;;;;;;;1.63;94.13;96327.13;2042908;29;20384;-55
2022/11/30 03:51:52;;;;;;;98.03;42.67;;;;;;;1.73;94.27;96350.09;2043110;29;20056;-54
2022/11/30 03:52:53;;;;;;;95.13;43.58;;;;;;;1.71;94.28;96348.41;2043030;29;20060;-54
2022/11/30 03:53:54;;;;;;;96.75;42.50;;;;;;;1.69;94.62;96356.09;2043189;29;20396;-54
2022/11/30 03:54:55;;;;;;;97.65;41.70;;;;;;;1.73;94.56;96351.81;2042197;29;20075;-55
2022/11/30 03:55:58;;;;;;;100.80;41.88;;;;;;;1.73;94.39;96351.81;2043172;29;20051;-55
2022/11/30 03:56:59;;;;;;;97.70;43.50;;;;;;;1.72;94.42;96352.69;2042685;29;20052;-58
2022/11/30 03:58:00;;;;;;;86.10;40.45;;;;;;;1.73;94.65;96346.69;2042948;29;20463;-58
2022/11/30 03:59:01;;;;;;;91.05;42.72;;;;;;;1.78;94.40;96350.06;2043052;29;20051;-59
2022/11/30 04:00:04;;;;;;;95.68;42.47;;;;;;;1.64;94.67;96328.84;2042681;29;20059;-58
2022/11/30 04:01:14;;;;;;;101.10;42.05;;;;;;;1.66;94.47;96337.38;2043022;29;20050;-58
2022/11/30 04:02:15;;;;;;;94.82;41.90;;;;;;;1.71;94.65;96349.28;2043109;29;20052;-58
2022/11/30 04:03:16;;;;;;;87.03;39.38;;;;;;;1.73;94.64;96350.09;2043049;29;20411;-58
2022/11/30 04:04:17;;;;;;;95.30;41.60;;;;;;;1.80;94.63;96350.91;2043162;29;20047;-58
2022/11/30 04:05:21;;;;;;;99.30;40.75;;;;;;;1.71;94.66;96345.84;2042960;29;20063;-58
2022/11/30 04:06:22;;;;;;;90.28;39.55;;;;;;;1.69;94.60;96327.94;2042942;29;20048;-58
2022/11/30 04:07:23;;;;;;;95.63;41.85;;;;;;;1.77;94.54;96350.94;2043091;29;20048;-59
2022/11/30 04:08:24;;;;;;;98.80;41.63;;;;;;;1.77;94.37;96349.22;2042278;29;20051;-58
2022/11/30 04:09:25;;;;;;;90.57;37.85;;;;;;;1.70;94.58;96342.44;2042907;29;20056;-58
2022/11/30 04:10:26;;;;;;;82.03;38.47;;;;;;;1.76;94.26;96352.66;2042565;29;20067;-58
2022/11/30 04:11:27;;;;;;;86.68;38.67;;;;;;;1.75;94.42;96357.78;2042590;29;20066;-54
2022/11/30 04:12:28;;;;;;;94.32;39.03;;;;;;;1.71;94.44;96353.53;2042643;29;20394;-55
2022/11/30 04:13:30;;;;;;;87.38;36.97;;;;;;;1.60;94.42;96338.22;2043022;29;20055;-54
2022/11/30 04:14:31;;;;;;;91.10;37.72;;;;;;;1.67;94.32;96346.75;2042160;29;20475;-55
2022/11/30 04:15:32;;;;;;;88.13;36.65;;;;;;;1.73;94.55;96342.41;2043005;29;20044;-54
2022/11/30 04:16:33;;;;;;;90.38;37.40;;;;;;;1.64;94.56;96344.19;2042961;29;20039;-64
2022/11/30 04:17:34;;;;;;;89.45;36.60;;;;;;;1.64;94.47;96349.31;2042692;29;20059;-63
2022/11/30 04:18:36;;;;;;;82.75;36.20;;;;;;;1.69;94.89;96350.16;2042951;29;20051;-64
2022/11/30 04:19:37;;;;;;;89.45;37.13;;;;;;;1.71;94.59;96340.72;2042234;29;20059;-64
2022/11/30 04:20:38;;;;;;;86.13;36.20;;;;;;;1.70;94.51;96344.16;2042402;29;20411;-64
2022/11/30 04:21:39;;;;;;;89.75;38.55;;;;;;;1.63;94.62;96347.59;2042501;29;20052;-61
2022/11/30 04:22:40;;;;;;;84.13;35.72;;;;;;;1.65;94.51;96341.63;2042636;29;20059;-61
2022/11/30 04:23:41;;;;;;;89.47;36.75;;;;;;;1.64;94.76;96337.38;2042864;29;20483;-62
2022/11/30 04:24:42;;;;;;;84.95;36.08;;;;;;;1.63;94.85;96342.47;2042410;29;20051;-61
2022/11/30 04:25:44;;;;;;;89.28;37.75;;;;;;;1.60;94.37;96335.66;2042089;29;20056;-61
2022/11/30 04:26:45;;;;;;;90.93;38.30;;;;;;;1.62;94.65;96343.34;2042787;29;20059;-61
2022/11/30 04:27:46;;;;;;;85.78;34.40;;;;;;;1.65;94.66;96346.72;2042824;29;20043;-61
2022/11/30 04:28:47;;;;;;;91.90;36.67;;;;;;;1.73;94.71;96354.38;2042590;29;20082;-61
2022/11/30 04:29:49;;;;;;;83.03;36.25;;;;;;;1.58;94.56;96324.63;2042498;29;20066;-62
2022/11/30 04:30:50;;;;;;;89.10;38.78;;;;;;;1.61;93.94;96334.00;2042712;29;20051;-62
2022/11/30 04:31:51;;;;;;;98.68;38.22;;;;;;;1.58;94.71;96344.22;2042181;29;20499;-61
2022/11/30 04:32:52;;;;;;;89.00;38.17;;;;;;;1.63;94.77;96351.03;2041805;29;20051;-62
2022/11/30 04:33:53;;;;;;;88.97;36.45;;;;;;;1.64;94.86;96347.59;2042840;29;20043;-61
2022/11/30 04:34:54;;;;;;;94.28;37.63;;;;;;;1.54;94.60;96349.38;2042507;29;20162;-61
2022/11/30 04:35:57;;;;;;;83.30;36.22;;;;;;;1.47;94.72;96322.13;2042309;29;20056;-61
2022/11/30 04:36:58;;;;;;;91.72;36.50;;;;;;;1.59;94.69;96351.91;2042094;29;20058;-61
2022/11/30 04:37:59;;;;;;;92.53;36.60;;;;;;;1.59;94.64;96346.78;2042363;29;20067;-61
2022/11/30 04:39:00;;;;;;;108.55;39.13;;;;;;;1.65;94.87;96351.84;2042628;29;20059;-61
2022/11/30 04:40:02;;;;;;;97.28;37.80;;;;;;;1.47;94.82;96327.25;2042493;29;20059;-61
2022/11/30 04:41:07;;;;;;;94.97;38.60;;;;;;;1.60;94.77;96353.59;2042121;29;20476;-62
2022/11/30 04:42:08;;;;;;;100.70;39.63;;;;;;;1.65;94.93;96356.13;2042147;29;20056;-54
2022/11/30 04:43:09;;;;;;;90.22;37.72;;;;;;;1.71;94.60;96356.09;2042791;29;20050;-55
2022/11/30 04:44:10;;;;;;;99.93;39.75;;;;;;;1.63;94.62;96345.03;2042031;29;20051;-54
2022/11/30 04:45:11;;;;;;;88.88;36.65;;;;;;;1.70;94.57;96349.28;2042700;29;20047;-55
2022/11/30 04:46:12;;;;;;;100.35;38.53;;;;;;;1.68;94.50;96350.97;2042914;29;20070;-55
2022/11/30 04:47:14;;;;;;;84.50;35.80;;;;;;;1.60;94.49;96353.59;2042670;29;20048;-55
2022/11/30 04:48:15;;;;;;;93.63;35.50;;;;;;;1.61;94.63;96339.09;2042009;29;20506;-54
2022/11/30 04:49:16;;;;;;;103.28;38.92;;;;;;;1.65;94.52;96351.00;2042496;29;20086;-55
2022/11/30 04:50:17;;;;;;;98.10;37.60;;;;;;;1.70;94.59;96346.72;2042383;29;20067;-54
2022/11/30 04:51:19;;;;;;;101.93;37.72;;;;;;;1.75;94.79;96347.53;2042361;29;20064;-55